createdAt,value
2019-02-24T00:02:27.534Z,55.17
2019-02-24T00:04:56.222Z,57.00
2019-02-24T00:07:24.774Z,51.90
2019-02-24T00:09:53.502Z,57.63
2019-02-24T00:12:22.131Z,50.70
2019-02-24T00:14:50.761Z,45.37
2019-02-24T00:17:19.448Z,47.90
2019-02-24T00:19:48.169Z,45.83
2019-02-24T00:22:16.892Z,44.20
2019-02-24T00:24:45.481Z,42.10
2019-02-24T00:27:14.109Z,42.90
2019-02-24T00:29:42.760Z,44.13
2019-02-24T00:32:11.506Z,34.73
2019-02-24T00:34:40.084Z,33.83
2019-02-24T00:37:08.803Z,37.10
2019-02-24T00:39:37.419Z,33.47
2019-02-24T00:42:08.835Z,31.60
2019-02-24T00:44:37.536Z,38.17
2019-02-24T00:47:09.164Z,48.67
2019-02-24T00:49:37.721Z,42.27
2019-02-24T00:52:06.409Z,47.30
2019-02-24T00:54:35.077Z,35.53
2019-02-24T00:57:03.772Z,35.47
2019-02-24T00:59:32.467Z,38.23
2019-02-24T01:02:01.209Z,36.00
2019-02-24T01:04:29.840Z,37.43
2019-02-24T01:06:58.844Z,37.90
2019-02-24T01:09:27.498Z,40.00
2019-02-24T01:11:56.242Z,34.27
2019-02-24T01:14:24.880Z,45.30
2019-02-24T01:16:53.905Z,38.93
2019-02-24T01:19:22.573Z,41.20
2019-02-24T01:21:51.121Z,40.53
2019-02-24T01:24:19.884Z,38.77
2019-02-24T01:26:48.557Z,38.97
2019-02-24T01:29:17.128Z,39.77
2019-02-24T01:31:45.854Z,43.17
2019-02-24T01:34:14.571Z,35.27
2019-02-24T01:36:43.186Z,42.03
2019-02-24T01:39:11.817Z,43.93
2019-02-24T01:41:40.567Z,38.60
2019-02-24T01:44:09.227Z,41.60
2019-02-24T01:46:37.915Z,39.97
2019-02-24T01:49:06.538Z,41.17
2019-02-24T01:51:35.183Z,41.87
2019-02-24T01:54:03.892Z,41.13
2019-02-24T01:56:32.452Z,39.07
2019-02-24T01:59:01.167Z,38.10
2019-02-24T02:01:31.286Z,43.30
2019-02-24T02:03:59.941Z,38.50
2019-02-24T02:06:28.701Z,38.90
2019-02-24T02:08:57.333Z,43.83
2019-02-24T02:11:28.543Z,43.83
2019-02-24T02:13:57.163Z,38.50
2019-02-24T02:16:25.904Z,44.60
2019-02-24T02:18:54.562Z,44.27
2019-02-24T02:21:23.259Z,46.23
2019-02-24T02:23:52.053Z,39.57
2019-02-24T02:26:23.308Z,40.80
2019-02-24T02:28:52.060Z,43.77
2019-02-24T02:31:20.779Z,47.20
2019-02-24T02:33:49.532Z,38.83
2019-02-24T02:36:18.186Z,36.30
2019-02-24T02:38:46.741Z,38.30
2019-02-24T02:41:15.385Z,33.83
2019-02-24T02:43:44.128Z,41.10
2019-02-24T02:46:12.836Z,44.90
2019-02-24T02:48:41.456Z,39.37
2019-02-24T02:51:10.195Z,41.53
2019-02-24T02:53:38.775Z,41.93
2019-02-24T02:56:07.471Z,43.70
2019-02-24T02:58:36.121Z,37.47
2019-02-24T03:01:04.759Z,35.70
2019-02-24T03:03:33.574Z,35.57
2019-02-24T03:06:03.947Z,39.80
2019-02-24T03:08:45.411Z,45.17
2019-02-24T03:11:14.745Z,34.30
2019-02-24T03:13:43.450Z,41.73
2019-02-24T03:16:12.168Z,39.57
2019-02-24T03:18:40.869Z,41.47
2019-02-24T03:21:09.445Z,36.43
2019-02-24T03:23:38.104Z,38.40
2019-02-24T03:26:06.802Z,42.10
2019-02-24T03:28:37.719Z,39.10
2019-02-24T03:31:06.386Z,42.43
2019-02-24T03:33:36.753Z,45.20
2019-02-24T03:36:05.337Z,38.00
2019-02-24T03:38:33.971Z,42.40
2019-02-24T03:41:02.981Z,42.20
2019-02-24T03:43:31.489Z,45.67
2019-02-24T03:46:00.247Z,41.17
2019-02-24T03:48:29.015Z,43.27
2019-02-24T03:50:57.598Z,43.53
2019-02-24T03:53:29.253Z,41.80
2019-02-24T03:55:57.973Z,43.47
2019-02-24T03:58:26.787Z,44.03
2019-02-24T04:00:55.469Z,42.63
2019-02-24T04:03:24.158Z,38.47
2019-02-24T04:05:52.877Z,53.20
2019-02-24T04:08:23.390Z,38.80
2019-02-24T04:10:52.077Z,44.40
2019-02-24T04:13:20.871Z,41.37
2019-02-24T04:15:49.669Z,44.50
2019-02-24T04:18:18.293Z,45.67
2019-02-24T04:20:47.053Z,41.17
2019-02-24T04:23:15.534Z,34.63
2019-02-24T04:25:44.256Z,41.37
2019-02-24T04:28:12.829Z,40.27
2019-02-24T04:30:41.440Z,46.00
2019-02-24T04:33:10.089Z,39.33
2019-02-24T04:35:38.737Z,37.87
2019-02-24T04:38:07.289Z,36.40
2019-02-24T04:40:35.890Z,42.53
2019-02-24T04:43:04.647Z,41.10
2019-02-24T04:45:33.390Z,37.97
2019-02-24T04:48:02.113Z,38.00
2019-02-24T04:50:30.668Z,42.07
2019-02-24T04:52:59.299Z,37.23
2019-02-24T04:55:27.938Z,36.57
2019-02-24T04:57:56.608Z,31.27
2019-02-24T05:00:25.181Z,37.47
2019-02-24T05:02:55.367Z,50.17
2019-02-24T05:05:24.024Z,42.00
2019-02-24T05:07:52.685Z,46.17
2019-02-24T05:10:21.302Z,52.87
2019-02-24T05:12:49.966Z,48.83
2019-02-24T05:15:18.642Z,47.67
2019-02-24T05:17:47.300Z,49.17
2019-02-24T05:20:15.949Z,49.03
2019-02-24T05:22:44.501Z,41.80
2019-02-24T05:25:13.193Z,42.60
2019-02-24T05:27:41.801Z,47.87
2019-02-24T05:30:10.515Z,40.03
2019-02-24T05:32:39.209Z,40.27
2019-02-24T05:35:07.944Z,46.77
2019-02-24T05:37:36.521Z,48.87
2019-02-24T05:40:06.065Z,41.03
2019-02-24T05:42:34.672Z,44.73
2019-02-24T05:45:03.689Z,54.77
2019-02-24T05:47:32.456Z,44.03
2019-02-24T05:50:01.065Z,54.30
2019-02-24T05:52:31.365Z,48.37
2019-02-24T05:55:00.024Z,48.50
2019-02-24T05:57:30.323Z,44.70
2019-02-24T05:59:58.989Z,48.57
2019-02-24T06:02:27.607Z,38.27
2019-02-24T06:04:56.312Z,45.77
2019-02-24T06:07:25.025Z,40.97
2019-02-24T06:09:53.613Z,46.43
2019-02-24T06:12:22.241Z,50.37
2019-02-24T06:14:50.810Z,48.50
2019-02-24T06:17:19.557Z,43.00
2019-02-24T06:19:49.708Z,42.60
2019-02-24T06:22:18.265Z,40.57
2019-02-24T06:24:46.858Z,46.27
2019-02-24T06:27:15.418Z,43.37
2019-02-24T06:29:43.970Z,43.47
2019-02-24T06:32:12.638Z,42.50
2019-02-24T06:34:41.295Z,38.13
2019-02-24T06:37:09.921Z,37.43
2019-02-24T06:39:45.851Z,41.27
2019-02-24T06:42:16.057Z,35.13
2019-02-24T06:44:44.684Z,41.70
2019-02-24T06:47:13.314Z,44.30
2019-02-24T06:49:41.942Z,39.80
2019-02-24T06:52:10.779Z,48.80
2019-02-24T06:54:39.491Z,44.30
2019-02-24T06:57:08.201Z,41.20
2019-02-24T06:59:36.849Z,44.23
2019-02-24T07:02:05.587Z,46.63
2019-02-24T07:04:34.140Z,41.07
2019-02-24T07:07:05.219Z,39.00
2019-02-24T07:09:33.715Z,40.83
2019-02-24T07:12:02.366Z,41.53
2019-02-24T07:14:31.458Z,46.33
2019-02-24T07:17:00.110Z,52.90
2019-02-24T07:19:28.663Z,45.33
2019-02-24T07:21:57.288Z,41.73
2019-02-24T07:24:25.898Z,40.33
2019-02-24T07:26:56.128Z,45.17
2019-02-24T07:29:24.760Z,42.63
2019-02-24T07:31:54.441Z,37.53
2019-02-24T07:34:23.193Z,40.37
2019-02-24T07:36:51.818Z,36.53
2019-02-24T07:39:20.531Z,41.70
2019-02-24T07:41:49.266Z,49.30
2019-02-24T07:44:17.916Z,41.60
2019-02-24T07:46:46.547Z,43.03
2019-02-24T07:49:15.110Z,37.03
2019-02-24T07:51:45.732Z,40.97
2019-02-24T07:54:14.304Z,42.03
2019-02-24T07:56:42.955Z,40.43
2019-02-24T07:59:11.547Z,43.87
2019-02-24T08:01:40.127Z,43.00
2019-02-24T08:04:08.697Z,46.07
2019-02-24T08:06:37.256Z,40.33
2019-02-24T08:09:06.353Z,39.93
2019-02-24T08:11:35.218Z,38.10
2019-02-24T08:14:03.924Z,36.67
2019-02-24T08:16:32.584Z,35.57
2019-02-24T08:19:01.214Z,34.33
2019-02-24T08:21:29.875Z,35.27
2019-02-24T08:23:58.550Z,30.83
2019-02-24T08:26:27.322Z,31.97
2019-02-24T08:28:56.288Z,38.77
2019-02-24T08:31:27.444Z,37.60
2019-02-24T08:33:55.967Z,30.60
2019-02-24T08:36:27.612Z,34.27
2019-02-24T08:38:56.356Z,37.07
2019-02-24T08:41:27.259Z,33.97
2019-02-24T08:43:55.826Z,33.90
2019-02-24T08:46:24.463Z,40.50
2019-02-24T08:48:53.195Z,30.53
2019-02-24T08:51:23.314Z,28.03
2019-02-24T08:53:52.321Z,33.43
2019-02-24T08:56:20.948Z,30.17
2019-02-24T08:58:54.186Z,30.53
2019-02-24T09:01:23.259Z,25.43
2019-02-24T09:03:51.868Z,26.83
2019-02-24T09:06:20.520Z,30.70
2019-02-24T09:08:49.187Z,25.80
2019-02-24T09:11:18.271Z,25.00
2019-02-24T09:13:46.930Z,21.40
2019-02-24T09:16:17.467Z,22.80
2019-02-24T09:18:46.238Z,21.57
2019-02-24T09:21:15.015Z,25.17
2019-02-24T09:23:43.852Z,24.37
2019-02-24T09:26:12.869Z,23.40
2019-02-24T09:28:41.572Z,25.93
2019-02-24T09:31:10.321Z,26.07
2019-02-24T09:33:39.038Z,23.27
2019-02-24T09:36:07.944Z,24.00
2019-02-24T09:38:36.723Z,22.60
2019-02-24T09:41:06.990Z,18.83
2019-02-24T09:43:35.738Z,22.10
2019-02-24T09:46:04.468Z,22.17
2019-02-24T09:48:33.564Z,23.57
2019-02-24T09:51:02.240Z,23.73
2019-02-24T09:53:31.563Z,20.40
2019-02-24T09:56:00.598Z,20.30
2019-02-24T09:58:29.364Z,22.70
2019-02-24T10:00:58.012Z,20.23
2019-02-24T10:03:28.684Z,19.47
2019-02-24T10:05:57.083Z,20.83
2019-02-24T10:08:25.669Z,21.53
2019-02-24T10:10:54.318Z,20.67
2019-02-24T10:13:23.034Z,18.73
2019-02-24T10:15:57.958Z,19.37
2019-02-24T10:18:26.608Z,22.77
2019-02-24T10:20:57.898Z,20.80
2019-02-24T10:23:27.113Z,20.73
2019-02-24T10:25:56.022Z,19.83
2019-02-24T10:28:24.666Z,22.57
2019-02-24T10:30:57.107Z,21.20
2019-02-24T10:33:25.908Z,23.93
2019-02-24T10:36:00.588Z,21.90
2019-02-24T10:38:29.370Z,14.37
2019-02-24T10:40:58.161Z,18.60
2019-02-24T10:43:26.867Z,14.07
2019-02-24T10:45:55.575Z,17.93
2019-02-24T10:48:28.386Z,17.83
2019-02-24T10:50:57.419Z,19.03
2019-02-24T10:53:28.122Z,15.13
2019-02-24T10:55:56.636Z,18.30
2019-02-24T10:58:34.289Z,16.10
2019-02-24T11:00:55.615Z,21.97
2019-02-24T11:03:26.459Z,17.60
2019-02-24T11:05:55.189Z,18.47
2019-02-24T11:08:23.940Z,15.97
2019-02-24T11:10:52.708Z,16.17
2019-02-24T11:13:21.571Z,15.30
2019-02-24T11:15:50.393Z,17.97
2019-02-24T11:18:18.971Z,17.10
2019-02-24T11:20:47.604Z,15.03
2019-02-24T11:23:17.737Z,13.83
2019-02-24T11:25:46.559Z,14.23
2019-02-24T11:28:15.213Z,20.70
2019-02-24T11:30:43.855Z,15.37
2019-02-24T11:33:12.625Z,13.47
2019-02-24T11:35:41.308Z,17.47
2019-02-24T11:38:10.042Z,13.27
2019-02-24T11:40:38.691Z,16.40
2019-02-24T11:43:07.588Z,14.20
2019-02-24T11:45:36.283Z,11.57
2019-02-24T11:48:05.016Z,10.17
2019-02-24T11:50:33.643Z,11.50
2019-02-24T11:53:02.367Z,13.60
2019-02-24T11:55:31.120Z,11.87
2019-02-24T11:57:59.787Z,10.67
2019-02-24T12:00:28.861Z,13.07
2019-02-24T12:02:57.440Z,11.57
2019-02-24T12:05:26.188Z,12.90
2019-02-24T12:07:54.877Z,12.07
2019-02-24T12:10:23.610Z,15.73
2019-02-24T12:12:52.319Z,9.83
2019-02-24T12:15:22.678Z,10.47
2019-02-24T12:17:51.345Z,10.37
2019-02-24T12:20:20.059Z,13.33
2019-02-24T12:22:48.755Z,11.50
2019-02-24T12:25:17.491Z,11.63
2019-02-24T12:27:46.216Z,13.03
2019-02-24T12:30:16.248Z,11.73
2019-02-24T12:32:44.872Z,12.43
2019-02-24T12:35:13.611Z,10.30
2019-02-24T12:37:42.342Z,12.00
2019-02-24T12:40:13.052Z,10.60
2019-02-24T12:42:43.334Z,9.77
2019-02-24T12:45:12.268Z,10.87
2019-02-24T12:47:40.959Z,11.30
2019-02-24T12:50:12.539Z,12.37
2019-02-24T12:52:41.193Z,14.40
2019-02-24T12:55:10.095Z,11.70
2019-02-24T12:57:39.022Z,15.63
2019-02-24T13:00:34.428Z,12.40
2019-02-24T13:03:03.150Z,12.17
2019-02-24T13:05:31.938Z,10.40
2019-02-24T13:08:00.663Z,14.20
2019-02-24T13:10:34.030Z,11.80
2019-02-24T13:13:03.141Z,12.33
2019-02-24T13:15:31.960Z,11.23
2019-02-24T13:18:00.675Z,11.70
2019-02-24T13:20:29.387Z,10.57
2019-02-24T13:22:58.181Z,11.73
2019-02-24T13:25:26.893Z,13.10
2019-02-24T13:27:55.595Z,10.13
2019-02-24T13:30:24.303Z,10.07
2019-02-24T13:32:52.954Z,12.10
2019-02-24T13:35:21.756Z,14.27
2019-02-24T13:37:50.254Z,12.67
2019-02-24T13:40:18.906Z,14.67
2019-02-24T13:42:47.599Z,11.80
2019-02-24T13:45:17.926Z,12.13
2019-02-24T13:47:46.489Z,13.40
2019-02-24T13:50:16.137Z,13.27
2019-02-24T13:52:44.866Z,12.37
2019-02-24T13:55:14.883Z,17.63
2019-02-24T13:57:43.704Z,14.40
2019-02-24T14:00:15.254Z,11.00
2019-02-24T14:02:43.874Z,14.47
2019-02-24T14:05:13.393Z,11.57
2019-02-24T14:07:42.121Z,11.37
2019-02-24T14:10:15.103Z,12.53
2019-02-24T14:12:43.941Z,13.50
2019-02-24T14:15:14.031Z,13.47
2019-02-24T14:17:42.752Z,11.50
2019-02-24T14:20:13.967Z,15.53
2019-02-24T14:22:42.630Z,13.23
2019-02-24T14:25:12.406Z,13.40
2019-02-24T14:27:41.266Z,10.30
2019-02-24T14:30:16.987Z,12.90
2019-02-24T14:32:45.751Z,13.13
2019-02-24T14:35:18.905Z,15.87
2019-02-24T14:37:47.625Z,13.80
2019-02-24T14:40:19.016Z,12.93
2019-02-24T14:42:47.651Z,13.07
2019-02-24T14:45:23.818Z,12.57
2019-02-24T14:47:52.620Z,11.30
2019-02-24T14:50:21.320Z,12.80
2019-02-24T14:52:49.962Z,11.37
2019-02-24T14:55:18.655Z,14.20
2019-02-24T14:57:47.390Z,13.43
2019-02-24T15:00:18.584Z,13.13
2019-02-24T15:02:47.275Z,13.23
2019-02-24T15:05:16.817Z,13.50
2019-02-24T15:07:45.653Z,12.67
2019-02-24T15:10:22.415Z,13.07
2019-02-24T15:12:51.079Z,17.97
2019-02-24T15:15:22.581Z,14.13
2019-02-24T15:17:51.235Z,14.13
2019-02-24T15:20:20.923Z,13.20
2019-02-24T15:22:49.667Z,15.57
2019-02-24T15:25:21.215Z,14.20
2019-02-24T15:27:49.783Z,17.53
2019-02-24T15:30:30.536Z,16.83
2019-02-24T15:32:59.205Z,16.60
2019-02-24T15:35:28.100Z,15.30
2019-02-24T15:37:59.307Z,16.10
2019-02-24T15:40:28.007Z,15.40
2019-02-24T15:42:56.719Z,16.83
2019-02-24T15:45:25.457Z,16.30
2019-02-24T15:47:54.155Z,12.57
2019-02-24T15:50:25.876Z,12.83
2019-02-24T15:52:54.577Z,13.67
2019-02-24T15:55:23.193Z,17.30
2019-02-24T15:57:51.793Z,16.57
2019-02-24T16:00:22.221Z,16.30
2019-02-24T16:02:51.025Z,16.03
2019-02-24T16:05:19.771Z,16.13
2019-02-24T16:07:53.042Z,17.57
2019-02-24T16:10:23.433Z,20.10
2019-02-24T16:12:52.188Z,23.77
2019-02-24T16:15:25.984Z,22.47
2019-02-24T16:17:54.558Z,26.93
2019-02-24T16:20:31.814Z,20.10
2019-02-24T16:23:00.449Z,21.77
2019-02-24T16:25:29.115Z,22.73
2019-02-24T16:27:57.976Z,20.80
2019-02-24T16:30:26.689Z,22.43
2019-02-24T16:32:55.445Z,22.97
2019-02-24T16:35:24.213Z,23.17
2019-02-24T16:37:53.006Z,20.57
2019-02-24T16:40:23.504Z,21.57
2019-02-24T16:42:52.365Z,25.50
2019-02-24T16:45:21.073Z,23.23
2019-02-24T16:47:49.788Z,18.10
2019-02-24T16:50:20.727Z,20.73
2019-02-24T16:52:49.366Z,19.07
2019-02-24T16:55:18.391Z,22.17
2019-02-24T16:57:47.195Z,19.13
2019-02-24T17:00:26.367Z,21.33
2019-02-24T17:02:55.059Z,21.37
2019-02-24T17:05:23.749Z,25.30
2019-02-24T17:07:52.374Z,25.57
2019-02-24T17:10:29.202Z,22.67
2019-02-24T17:12:57.874Z,26.87
2019-02-24T17:15:26.577Z,21.70
2019-02-24T17:17:55.337Z,24.60
2019-02-24T17:20:31.075Z,24.03
2019-02-24T17:22:59.753Z,23.67
2019-02-24T17:25:28.455Z,25.37
2019-02-24T17:27:57.187Z,25.30
2019-02-24T17:30:25.850Z,22.43
2019-02-24T17:32:54.638Z,28.80
2019-02-24T17:35:23.543Z,27.73
2019-02-24T17:37:52.192Z,25.93
2019-02-24T17:40:22.486Z,35.80
2019-02-24T17:42:51.244Z,31.87
2019-02-24T17:45:19.974Z,30.10
2019-02-24T17:47:48.554Z,28.60
2019-02-24T17:50:17.890Z,27.70
2019-02-24T17:52:46.582Z,29.47
2019-02-24T17:55:18.434Z,27.23
2019-02-24T17:57:47.192Z,33.40
2019-02-24T18:00:22.982Z,31.87
2019-02-24T18:02:51.706Z,30.13
2019-02-24T18:05:20.441Z,29.63
2019-02-24T18:07:49.153Z,33.17
2019-02-24T18:10:18.114Z,33.67
2019-02-24T18:12:48.335Z,38.37
2019-02-24T18:15:17.066Z,39.97
2019-02-24T18:17:45.829Z,32.83
2019-02-24T18:20:20.109Z,31.97
2019-02-24T18:22:48.898Z,35.97
2019-02-24T18:25:17.618Z,30.27
2019-02-24T18:27:46.356Z,34.13
2019-02-24T18:30:29.235Z,30.00
2019-02-24T18:32:57.898Z,34.27
2019-02-24T18:35:26.629Z,43.03
2019-02-24T18:37:55.405Z,39.47
2019-02-24T18:40:24.203Z,39.37
2019-02-24T18:42:59.706Z,38.17
2019-02-24T18:45:23.285Z,41.87
2019-02-24T18:47:52.381Z,42.47
2019-02-24T18:50:21.075Z,43.63
2019-02-24T18:52:50.016Z,44.77
2019-02-24T18:55:18.773Z,52.60
2019-02-24T18:57:47.756Z,54.77
2019-02-24T19:00:20.651Z,55.67
2019-02-24T19:02:49.407Z,47.27
2019-02-24T19:05:18.136Z,46.57
2019-02-24T19:07:46.858Z,47.77
2019-02-24T19:10:18.035Z,52.27
2019-02-24T19:12:46.783Z,47.07
2019-02-24T19:15:19.491Z,53.87
2019-02-24T19:17:48.223Z,56.67
2019-02-24T19:20:19.127Z,61.87
2019-02-24T19:22:47.812Z,57.37
2019-02-24T19:25:19.646Z,57.10
2019-02-24T19:27:48.409Z,61.63
2019-02-24T19:30:20.023Z,61.73
2019-02-24T19:32:48.719Z,51.97
2019-02-24T19:35:19.465Z,49.73
2019-02-24T19:37:48.173Z,53.17
2019-02-24T19:40:18.171Z,49.07
2019-02-24T19:42:46.911Z,50.23
2019-02-24T19:45:20.411Z,46.00
2019-02-24T19:47:49.133Z,48.97
2019-02-24T19:50:20.912Z,47.20
2019-02-24T19:52:49.613Z,46.63
2019-02-24T19:55:18.563Z,43.67
2019-02-24T19:57:47.207Z,44.40
2019-02-24T20:00:25.947Z,43.93
2019-02-24T20:02:57.755Z,35.97
2019-02-24T20:05:26.402Z,33.80
2019-02-24T20:07:55.205Z,39.70
2019-02-24T20:10:30.645Z,33.07
2019-02-24T20:12:59.390Z,34.63
2019-02-24T20:15:28.108Z,31.93
2019-02-24T20:17:56.821Z,32.40
2019-02-24T20:20:25.509Z,34.30
2019-02-24T20:22:54.251Z,31.57
2019-02-24T20:25:23.665Z,29.17
2019-02-24T20:27:52.379Z,31.23
2019-02-24T20:30:26.343Z,33.10
2019-02-24T20:32:55.088Z,29.23
2019-02-24T20:35:23.783Z,27.67
2019-02-24T20:37:52.545Z,31.83
2019-02-24T20:40:21.201Z,25.43
2019-02-24T20:42:49.833Z,27.00
2019-02-24T20:45:21.232Z,25.90
2019-02-24T20:47:49.917Z,29.60
2019-02-24T20:50:23.479Z,26.43
2019-02-24T20:52:53.801Z,28.77
2019-02-24T20:55:26.328Z,26.63
2019-02-24T20:57:54.987Z,25.97
2019-02-24T21:00:29.443Z,23.97
2019-02-24T21:03:01.839Z,26.57
2019-02-24T21:05:30.851Z,20.43
2019-02-24T21:07:59.587Z,27.27
2019-02-24T21:10:28.315Z,24.63
2019-02-24T21:12:59.453Z,22.93
2019-02-24T21:15:27.427Z,20.73
2019-02-24T21:18:02.973Z,24.43
2019-02-24T21:20:35.411Z,23.60
2019-02-24T21:23:04.101Z,26.13
2019-02-24T21:25:32.662Z,21.40
2019-02-24T21:28:01.414Z,24.77
2019-02-24T21:30:31.792Z,24.43
2019-02-24T21:33:00.644Z,25.60
2019-02-24T21:35:29.374Z,24.67
2019-02-24T21:37:58.081Z,26.13
2019-02-24T21:40:26.727Z,25.83
2019-02-24T21:42:55.394Z,22.93
2019-02-24T21:45:27.035Z,32.33
2019-02-24T21:47:55.744Z,38.47
2019-02-24T21:50:24.505Z,31.07
2019-02-24T21:52:53.216Z,50.33
2019-02-24T21:55:21.907Z,58.23
2019-02-24T21:57:50.550Z,60.03
2019-02-24T22:00:21.991Z,64.80
2019-02-24T22:02:50.717Z,61.77
2019-02-24T22:05:19.441Z,65.87
2019-02-24T22:07:48.165Z,62.13
2019-02-24T22:10:18.436Z,75.63
2019-02-24T22:12:47.113Z,68.03
2019-02-24T22:15:20.196Z,72.23
2019-02-24T22:17:48.577Z,74.63
2019-02-24T22:20:17.336Z,73.07
2019-02-24T22:22:46.056Z,71.70
2019-02-24T22:25:15.477Z,61.03
2019-02-24T22:27:44.179Z,62.10
2019-02-24T22:30:20.153Z,59.70
2019-02-24T22:32:48.873Z,63.13
2019-02-24T22:35:17.582Z,57.37
2019-02-24T22:37:46.347Z,58.27
2019-02-24T22:40:16.958Z,59.50
2019-02-24T22:42:46.563Z,49.70
2019-02-24T22:45:20.163Z,54.33
2019-02-24T22:47:48.878Z,52.13
2019-02-24T22:50:17.664Z,59.13
2019-02-24T22:52:49.645Z,49.63
2019-02-24T22:55:19.140Z,41.90
2019-02-24T22:57:54.970Z,53.33
2019-02-24T23:00:45.975Z,38.40
2019-02-24T23:03:14.701Z,43.63
2019-02-24T23:05:45.016Z,44.87
2019-02-24T23:08:13.775Z,38.83
2019-02-24T23:10:42.558Z,44.67
2019-02-24T23:13:11.178Z,42.17
2019-02-24T23:15:39.937Z,38.30
2019-02-24T23:18:08.651Z,43.73
2019-02-24T23:20:38.508Z,42.90
2019-02-24T23:23:08.704Z,40.80
2019-02-24T23:25:37.394Z,40.13
2019-02-24T23:28:06.129Z,37.17
2019-02-24T23:30:34.814Z,48.57
2019-02-24T23:33:03.530Z,42.07
2019-02-24T23:35:32.654Z,43.50
2019-02-24T23:38:01.376Z,40.73
2019-02-24T23:40:30.001Z,36.80
2019-02-24T23:42:58.806Z,36.53
2019-02-24T23:45:27.574Z,36.57
2019-02-24T23:47:56.271Z,38.83
2019-02-24T23:50:25.038Z,30.30
2019-02-24T23:52:53.648Z,41.17
2019-02-24T23:55:22.381Z,34.17
2019-02-24T23:57:51.095Z,33.57
